sensor_id;sensor_type;location;lat;lon;timestamp;P1;durP1;ratioP1;P2;durP2;ratioP2
37477;SDS011;23334;54.316;10.182;2023-12-20T00:01:32;20.47;;;2.47;;
37477;SDS011;23334;54.316;10.182;2023-12-20T00:03:58;10.27;;;1.97;;
37477;SDS011;23334;54.316;10.182;2023-12-20T00:06:25;11.60;;;1.30;;
37477;SDS011;23334;54.316;10.182;2023-12-20T00:08:51;6.87;;;1.60;;
37477;SDS011;23334;54.316;10.182;2023-12-20T00:11:18;4.90;;;1.23;;
37477;SDS011;23334;54.316;10.182;2023-12-20T00:13:44;5.53;;;0.97;;
37477;SDS011;23334;54.316;10.182;2023-12-20T00:16:11;8.80;;;1.43;;
37477;SDS011;23334;54.316;10.182;2023-12-20T00:18:36;7.90;;;1.17;;
37477;SDS011;23334;54.316;10.182;2023-12-20T00:21:02;16.50;;;1.40;;
37477;SDS011;23334;54.316;10.182;2023-12-20T00:23:27;18.93;;;1.83;;
37477;SDS011;23334;54.316;10.182;2023-12-20T00:25:54;13.00;;;1.27;;
37477;SDS011;23334;54.316;10.182;2023-12-20T00:28:20;10.53;;;1.10;;
37477;SDS011;23334;54.316;10.182;2023-12-20T00:30:47;12.80;;;2.13;;
37477;SDS011;23334;54.316;10.182;2023-12-20T00:33:12;5.70;;;1.90;;
37477;SDS011;23334;54.316;10.182;2023-12-20T00:35:40;12.47;;;0.90;;
37477;SDS011;23334;54.316;10.182;2023-12-20T00:38:06;18.67;;;1.70;;
37477;SDS011;23334;54.316;10.182;2023-12-20T00:40:34;10.10;;;2.03;;
37477;SDS011;23334;54.316;10.182;2023-12-20T00:42:59;11.17;;;1.30;;
37477;SDS011;23334;54.316;10.182;2023-12-20T00:45:25;5.17;;;1.20;;
37477;SDS011;23334;54.316;10.182;2023-12-20T00:47:51;9.10;;;1.60;;
37477;SDS011;23334;54.316;10.182;2023-12-20T00:50:17;10.47;;;1.57;;
37477;SDS011;23334;54.316;10.182;2023-12-20T00:52:43;7.53;;;1.93;;
37477;SDS011;23334;54.316;10.182;2023-12-20T00:55:09;16.27;;;2.23;;
37477;SDS011;23334;54.316;10.182;2023-12-20T00:57:36;9.77;;;1.33;;
37477;SDS011;23334;54.316;10.182;2023-12-20T01:00:03;10.03;;;1.60;;
37477;SDS011;23334;54.316;10.182;2023-12-20T01:02:28;7.10;;;1.23;;
37477;SDS011;23334;54.316;10.182;2023-12-20T01:04:54;15.77;;;1.33;;
37477;SDS011;23334;54.316;10.182;2023-12-20T01:07:19;10.10;;;2.23;;
37477;SDS011;23334;54.316;10.182;2023-12-20T01:09:45;10.20;;;1.03;;
37477;SDS011;23334;54.316;10.182;2023-12-20T01:12:12;8.50;;;1.60;;
37477;SDS011;23334;54.316;10.182;2023-12-20T01:14:39;16.20;;;1.93;;
37477;SDS011;23334;54.316;10.182;2023-12-20T01:17:06;5.97;;;1.43;;
37477;SDS011;23334;54.316;10.182;2023-12-20T01:19:31;9.90;;;1.80;;
37477;SDS011;23334;54.316;10.182;2023-12-20T01:21:58;6.07;;;2.20;;
37477;SDS011;23334;54.316;10.182;2023-12-20T01:24:23;11.17;;;1.03;;
37477;SDS011;23334;54.316;10.182;2023-12-20T01:26:49;8.60;;;1.37;;
37477;SDS011;23334;54.316;10.182;2023-12-20T01:29:14;18.07;;;1.67;;
37477;SDS011;23334;54.316;10.182;2023-12-20T01:31:40;8.53;;;2.13;;
37477;SDS011;23334;54.316;10.182;2023-12-20T01:34:06;15.20;;;1.90;;
37477;SDS011;23334;54.316;10.182;2023-12-20T01:36:33;7.23;;;1.70;;
37477;SDS011;23334;54.316;10.182;2023-12-20T01:38:58;15.57;;;2.00;;
37477;SDS011;23334;54.316;10.182;2023-12-20T01:41:25;15.80;;;2.23;;
37477;SDS011;23334;54.316;10.182;2023-12-20T01:43:52;12.83;;;1.93;;
37477;SDS011;23334;54.316;10.182;2023-12-20T01:46:18;4.40;;;1.20;;
37477;SDS011;23334;54.316;10.182;2023-12-20T01:48:45;12.60;;;1.50;;
37477;SDS011;23334;54.316;10.182;2023-12-20T01:51:12;5.40;;;0.63;;
37477;SDS011;23334;54.316;10.182;2023-12-20T01:53:38;6.60;;;1.50;;
37477;SDS011;23334;54.316;10.182;2023-12-20T01:56:05;13.10;;;2.40;;
37477;SDS011;23334;54.316;10.182;2023-12-20T01:58:33;12.90;;;1.40;;
37477;SDS011;23334;54.316;10.182;2023-12-20T02:00:58;9.50;;;1.30;;
37477;SDS011;23334;54.316;10.182;2023-12-20T02:03:24;17.70;;;2.00;;
37477;SDS011;23334;54.316;10.182;2023-12-20T02:05:50;6.43;;;1.27;;
37477;SDS011;23334;54.316;10.182;2023-12-20T02:08:16;6.77;;;1.20;;
37477;SDS011;23334;54.316;10.182;2023-12-20T02:10:42;6.17;;;1.20;;
37477;SDS011;23334;54.316;10.182;2023-12-20T02:13:08;8.20;;;2.20;;
37477;SDS011;23334;54.316;10.182;2023-12-20T02:15:35;6.93;;;1.27;;
37477;SDS011;23334;54.316;10.182;2023-12-20T02:18:02;6.97;;;1.50;;
37477;SDS011;23334;54.316;10.182;2023-12-20T02:20:28;7.27;;;1.60;;
37477;SDS011;23334;54.316;10.182;2023-12-20T02:22:54;8.07;;;1.10;;
37477;SDS011;23334;54.316;10.182;2023-12-20T02:25:20;4.40;;;0.93;;
37477;SDS011;23334;54.316;10.182;2023-12-20T02:27:45;19.93;;;1.80;;
37477;SDS011;23334;54.316;10.182;2023-12-20T02:30:11;10.93;;;1.60;;
37477;SDS011;23334;54.316;10.182;2023-12-20T02:32:37;5.10;;;1.10;;
37477;SDS011;23334;54.316;10.182;2023-12-20T02:35:03;13.30;;;1.43;;
37477;SDS011;23334;54.316;10.182;2023-12-20T02:37:29;6.23;;;1.93;;
37477;SDS011;23334;54.316;10.182;2023-12-20T02:39:54;10.13;;;1.47;;
37477;SDS011;23334;54.316;10.182;2023-12-20T02:42:20;4.27;;;1.30;;
37477;SDS011;23334;54.316;10.182;2023-12-20T02:44:45;2.67;;;0.83;;
37477;SDS011;23334;54.316;10.182;2023-12-20T02:47:12;1.53;;;0.90;;
37477;SDS011;23334;54.316;10.182;2023-12-20T02:49:40;6.23;;;1.00;;
37477;SDS011;23334;54.316;10.182;2023-12-20T02:52:06;3.13;;;0.77;;
37477;SDS011;23334;54.316;10.182;2023-12-20T02:54:31;7.00;;;1.30;;
37477;SDS011;23334;54.316;10.182;2023-12-20T02:56:57;3.50;;;1.43;;
37477;SDS011;23334;54.316;10.182;2023-12-20T02:59:22;15.63;;;1.53;;
37477;SDS011;23334;54.316;10.182;2023-12-20T03:01:49;8.20;;;1.20;;
37477;SDS011;23334;54.316;10.182;2023-12-20T03:04:16;4.73;;;0.87;;
37477;SDS011;23334;54.316;10.182;2023-12-20T03:06:41;4.10;;;0.87;;
37477;SDS011;23334;54.316;10.182;2023-12-20T03:09:07;7.10;;;1.40;;
37477;SDS011;23334;54.316;10.182;2023-12-20T03:11:32;5.07;;;1.20;;
37477;SDS011;23334;54.316;10.182;2023-12-20T03:13:58;6.90;;;1.90;;
37477;SDS011;23334;54.316;10.182;2023-12-20T03:16:23;3.23;;;1.07;;
37477;SDS011;23334;54.316;10.182;2023-12-20T03:18:51;6.30;;;1.00;;
37477;SDS011;23334;54.316;10.182;2023-12-20T03:21:16;6.53;;;1.00;;
37477;SDS011;23334;54.316;10.182;2023-12-20T03:23:43;7.57;;;1.30;;
37477;SDS011;23334;54.316;10.182;2023-12-20T03:26:09;4.83;;;1.00;;
37477;SDS011;23334;54.316;10.182;2023-12-20T03:28:35;6.93;;;1.00;;
37477;SDS011;23334;54.316;10.182;2023-12-20T03:31:01;5.73;;;1.40;;
37477;SDS011;23334;54.316;10.182;2023-12-20T03:33:29;5.93;;;1.90;;
37477;SDS011;23334;54.316;10.182;2023-12-20T03:35:56;4.23;;;1.20;;
37477;SDS011;23334;54.316;10.182;2023-12-20T03:38:22;4.93;;;1.53;;
37477;SDS011;23334;54.316;10.182;2023-12-20T03:40:49;7.23;;;1.50;;
37477;SDS011;23334;54.316;10.182;2023-12-20T03:43:17;6.37;;;2.00;;
37477;SDS011;23334;54.316;10.182;2023-12-20T03:45:42;11.37;;;1.90;;
37477;SDS011;23334;54.316;10.182;2023-12-20T03:48:09;3.23;;;1.30;;
37477;SDS011;23334;54.316;10.182;2023-12-20T03:50:35;4.67;;;1.40;;
37477;SDS011;23334;54.316;10.182;2023-12-20T03:53:00;11.53;;;1.57;;
37477;SDS011;23334;54.316;10.182;2023-12-20T03:55:26;12.80;;;1.93;;
37477;SDS011;23334;54.316;10.182;2023-12-20T03:57:52;7.07;;;1.63;;
37477;SDS011;23334;54.316;10.182;2023-12-20T04:00:18;6.17;;;1.87;;
37477;SDS011;23334;54.316;10.182;2023-12-20T04:02:45;7.27;;;1.30;;
37477;SDS011;23334;54.316;10.182;2023-12-20T04:05:11;8.00;;;1.60;;
37477;SDS011;23334;54.316;10.182;2023-12-20T04:07:36;7.33;;;1.10;;
37477;SDS011;23334;54.316;10.182;2023-12-20T04:10:03;4.07;;;1.23;;
37477;SDS011;23334;54.316;10.182;2023-12-20T04:12:29;6.03;;;2.10;;
37477;SDS011;23334;54.316;10.182;2023-12-20T04:14:56;3.67;;;0.93;;
37477;SDS011;23334;54.316;10.182;2023-12-20T04:17:21;4.50;;;1.10;;
37477;SDS011;23334;54.316;10.182;2023-12-20T04:19:50;4.13;;;0.97;;
37477;SDS011;23334;54.316;10.182;2023-12-20T04:22:19;3.57;;;1.30;;
37477;SDS011;23334;54.316;10.182;2023-12-20T04:24:44;12.03;;;1.40;;
37477;SDS011;23334;54.316;10.182;2023-12-20T04:27:10;7.50;;;1.13;;
37477;SDS011;23334;54.316;10.182;2023-12-20T04:29:36;5.40;;;1.03;;
37477;SDS011;23334;54.316;10.182;2023-12-20T04:32:02;4.90;;;1.00;;
37477;SDS011;23334;54.316;10.182;2023-12-20T04:34:28;3.80;;;0.90;;
37477;SDS011;23334;54.316;10.182;2023-12-20T04:36:54;4.57;;;1.00;;
37477;SDS011;23334;54.316;10.182;2023-12-20T04:39:20;3.73;;;1.20;;
37477;SDS011;23334;54.316;10.182;2023-12-20T04:41:45;7.20;;;0.87;;
37477;SDS011;23334;54.316;10.182;2023-12-20T04:44:13;5.90;;;0.93;;
37477;SDS011;23334;54.316;10.182;2023-12-20T04:46:39;4.83;;;1.47;;
37477;SDS011;23334;54.316;10.182;2023-12-20T04:49:04;6.77;;;1.60;;
37477;SDS011;23334;54.316;10.182;2023-12-20T04:51:32;5.97;;;1.57;;
37477;SDS011;23334;54.316;10.182;2023-12-20T04:53:58;2.20;;;0.70;;
37477;SDS011;23334;54.316;10.182;2023-12-20T04:56:24;3.93;;;0.80;;
37477;SDS011;23334;54.316;10.182;2023-12-20T04:58:51;1.20;;;0.63;;
37477;SDS011;23334;54.316;10.182;2023-12-20T05:01:16;3.23;;;0.77;;
37477;SDS011;23334;54.316;10.182;2023-12-20T05:03:42;2.50;;;1.00;;
37477;SDS011;23334;54.316;10.182;2023-12-20T05:06:09;5.23;;;1.23;;
37477;SDS011;23334;54.316;10.182;2023-12-20T05:08:35;5.40;;;1.10;;
37477;SDS011;23334;54.316;10.182;2023-12-20T05:11:00;8.70;;;1.33;;
37477;SDS011;23334;54.316;10.182;2023-12-20T05:13:26;8.77;;;1.40;;
37477;SDS011;23334;54.316;10.182;2023-12-20T05:15:53;5.03;;;1.30;;
37477;SDS011;23334;54.316;10.182;2023-12-20T05:18:20;8.00;;;2.40;;
37477;SDS011;23334;54.316;10.182;2023-12-20T05:20:46;10.97;;;1.23;;
37477;SDS011;23334;54.316;10.182;2023-12-20T05:23:12;11.90;;;2.00;;
37477;SDS011;23334;54.316;10.182;2023-12-20T05:25:38;10.60;;;1.23;;
37477;SDS011;23334;54.316;10.182;2023-12-20T05:28:04;11.37;;;2.83;;
37477;SDS011;23334;54.316;10.182;2023-12-20T05:30:29;11.00;;;1.93;;
37477;SDS011;23334;54.316;10.182;2023-12-20T05:32:55;10.20;;;1.40;;
37477;SDS011;23334;54.316;10.182;2023-12-20T05:35:20;6.43;;;1.80;;
37477;SDS011;23334;54.316;10.182;2023-12-20T05:37:48;7.93;;;2.40;;
37477;SDS011;23334;54.316;10.182;2023-12-20T05:40:14;7.50;;;2.00;;
37477;SDS011;23334;54.316;10.182;2023-12-20T05:42:40;11.97;;;1.60;;
37477;SDS011;23334;54.316;10.182;2023-12-20T05:45:05;8.60;;;1.80;;
37477;SDS011;23334;54.316;10.182;2023-12-20T05:47:31;6.80;;;1.40;;
37477;SDS011;23334;54.316;10.182;2023-12-20T05:49:56;7.03;;;1.60;;
37477;SDS011;23334;54.316;10.182;2023-12-20T05:52:22;11.00;;;1.23;;
37477;SDS011;23334;54.316;10.182;2023-12-20T05:54:47;10.00;;;1.17;;
37477;SDS011;23334;54.316;10.182;2023-12-20T05:57:13;12.10;;;1.47;;
37477;SDS011;23334;54.316;10.182;2023-12-20T05:59:40;7.40;;;1.13;;
37477;SDS011;23334;54.316;10.182;2023-12-20T06:02:05;10.70;;;1.43;;
37477;SDS011;23334;54.316;10.182;2023-12-20T06:04:31;11.37;;;2.10;;
37477;SDS011;23334;54.316;10.182;2023-12-20T06:06:57;8.33;;;1.60;;
37477;SDS011;23334;54.316;10.182;2023-12-20T06:09:23;6.03;;;1.37;;
37477;SDS011;23334;54.316;10.182;2023-12-20T06:11:49;15.53;;;1.90;;
37477;SDS011;23334;54.316;10.182;2023-12-20T06:14:16;9.93;;;1.90;;
37477;SDS011;23334;54.316;10.182;2023-12-20T06:16:41;13.23;;;2.10;;
37477;SDS011;23334;54.316;10.182;2023-12-20T06:19:07;3.83;;;1.10;;
37477;SDS011;23334;54.316;10.182;2023-12-20T06:21:33;21.37;;;2.77;;
37477;SDS011;23334;54.316;10.182;2023-12-20T06:23:59;7.97;;;1.60;;
37477;SDS011;23334;54.316;10.182;2023-12-20T06:26:26;12.13;;;2.13;;
37477;SDS011;23334;54.316;10.182;2023-12-20T06:28:52;9.93;;;2.50;;
37477;SDS011;23334;54.316;10.182;2023-12-20T06:31:19;17.23;;;1.87;;
37477;SDS011;23334;54.316;10.182;2023-12-20T06:33:44;5.80;;;1.87;;
37477;SDS011;23334;54.316;10.182;2023-12-20T06:36:13;10.43;;;2.10;;
37477;SDS011;23334;54.316;10.182;2023-12-20T06:38:41;11.83;;;2.13;;
37477;SDS011;23334;54.316;10.182;2023-12-20T06:41:12;11.83;;;2.37;;
37477;SDS011;23334;54.316;10.182;2023-12-20T06:43:39;13.37;;;2.73;;
37477;SDS011;23334;54.316;10.182;2023-12-20T06:46:05;13.03;;;1.80;;
37477;SDS011;23334;54.316;10.182;2023-12-20T06:48:31;15.13;;;3.00;;
37477;SDS011;23334;54.316;10.182;2023-12-20T06:50:57;17.50;;;3.43;;
37477;SDS011;23334;54.316;10.182;2023-12-20T06:53:25;19.10;;;3.13;;
37477;SDS011;23334;54.316;10.182;2023-12-20T06:55:50;13.80;;;2.47;;
37477;SDS011;23334;54.316;10.182;2023-12-20T06:58:17;9.17;;;1.67;;
37477;SDS011;23334;54.316;10.182;2023-12-20T07:00:43;10.43;;;2.00;;
37477;SDS011;23334;54.316;10.182;2023-12-20T07:03:09;12.43;;;2.27;;
37477;SDS011;23334;54.316;10.182;2023-12-20T07:05:36;9.00;;;2.10;;
37477;SDS011;23334;54.316;10.182;2023-12-20T07:08:04;7.37;;;2.73;;
37477;SDS011;23334;54.316;10.182;2023-12-20T07:10:30;7.30;;;1.80;;
37477;SDS011;23334;54.316;10.182;2023-12-20T07:12:55;14.07;;;2.27;;
37477;SDS011;23334;54.316;10.182;2023-12-20T07:15:21;8.90;;;2.10;;
37477;SDS011;23334;54.316;10.182;2023-12-20T07:17:48;7.87;;;1.40;;
37477;SDS011;23334;54.316;10.182;2023-12-20T07:20:13;14.17;;;1.87;;
37477;SDS011;23334;54.316;10.182;2023-12-20T07:22:39;14.70;;;2.00;;
37477;SDS011;23334;54.316;10.182;2023-12-20T07:25:06;7.03;;;1.50;;
37477;SDS011;23334;54.316;10.182;2023-12-20T07:27:32;14.93;;;1.63;;
37477;SDS011;23334;54.316;10.182;2023-12-20T07:29:57;11.67;;;1.70;;
37477;SDS011;23334;54.316;10.182;2023-12-20T07:32:24;5.70;;;1.23;;
37477;SDS011;23334;54.316;10.182;2023-12-20T07:34:49;9.83;;;2.20;;
37477;SDS011;23334;54.316;10.182;2023-12-20T07:37:15;10.20;;;2.10;;
37477;SDS011;23334;54.316;10.182;2023-12-20T07:39:41;15.20;;;2.37;;
37477;SDS011;23334;54.316;10.182;2023-12-20T07:42:07;27.73;;;2.87;;
37477;SDS011;23334;54.316;10.182;2023-12-20T07:44:33;15.60;;;1.80;;
37477;SDS011;23334;54.316;10.182;2023-12-20T07:47:02;16.70;;;2.50;;
37477;SDS011;23334;54.316;10.182;2023-12-20T07:49:28;12.37;;;1.90;;
37477;SDS011;23334;54.316;10.182;2023-12-20T07:51:54;19.93;;;2.80;;
37477;SDS011;23334;54.316;10.182;2023-12-20T07:54:20;11.40;;;2.20;;
37477;SDS011;23334;54.316;10.182;2023-12-20T07:56:48;13.27;;;2.23;;
37477;SDS011;23334;54.316;10.182;2023-12-20T07:59:16;11.27;;;2.23;;
37477;SDS011;23334;54.316;10.182;2023-12-20T08:01:42;20.37;;;2.40;;
37477;SDS011;23334;54.316;10.182;2023-12-20T08:04:07;7.03;;;1.53;;
37477;SDS011;23334;54.316;10.182;2023-12-20T08:06:33;13.43;;;2.17;;
37477;SDS011;23334;54.316;10.182;2023-12-20T08:08:59;14.73;;;2.30;;
37477;SDS011;23334;54.316;10.182;2023-12-20T08:11:24;12.10;;;1.20;;
37477;SDS011;23334;54.316;10.182;2023-12-20T08:13:50;10.57;;;2.00;;
37477;SDS011;23334;54.316;10.182;2023-12-20T08:16:16;10.63;;;1.80;;
37477;SDS011;23334;54.316;10.182;2023-12-20T08:18:43;8.97;;;1.40;;
37477;SDS011;23334;54.316;10.182;2023-12-20T08:21:11;2.30;;;1.03;;
37477;SDS011;23334;54.316;10.182;2023-12-20T08:23:36;3.30;;;1.20;;
37477;SDS011;23334;54.316;10.182;2023-12-20T08:26:05;3.17;;;1.10;;
37477;SDS011;23334;54.316;10.182;2023-12-20T08:28:31;5.40;;;1.00;;
37477;SDS011;23334;54.316;10.182;2023-12-20T08:30:57;3.03;;;1.47;;
37477;SDS011;23334;54.316;10.182;2023-12-20T08:33:24;3.20;;;0.97;;
37477;SDS011;23334;54.316;10.182;2023-12-20T08:35:51;6.30;;;1.43;;
37477;SDS011;23334;54.316;10.182;2023-12-20T08:38:18;3.23;;;1.53;;
37477;SDS011;23334;54.316;10.182;2023-12-20T08:40:45;4.63;;;0.80;;
37477;SDS011;23334;54.316;10.182;2023-12-20T08:43:10;2.40;;;0.90;;
37477;SDS011;23334;54.316;10.182;2023-12-20T08:45:36;1.63;;;0.50;;
37477;SDS011;23334;54.316;10.182;2023-12-20T08:48:04;2.23;;;0.60;;
37477;SDS011;23334;54.316;10.182;2023-12-20T08:50:29;5.27;;;0.73;;
37477;SDS011;23334;54.316;10.182;2023-12-20T08:52:55;1.40;;;0.50;;
37477;SDS011;23334;54.316;10.182;2023-12-20T08:55:20;5.40;;;0.70;;
37477;SDS011;23334;54.316;10.182;2023-12-20T08:57:46;5.67;;;1.20;;
37477;SDS011;23334;54.316;10.182;2023-12-20T09:00:11;2.40;;;0.67;;
37477;SDS011;23334;54.316;10.182;2023-12-20T09:02:38;1.37;;;0.50;;
37477;SDS011;23334;54.316;10.182;2023-12-20T09:05:04;4.00;;;1.00;;
37477;SDS011;23334;54.316;10.182;2023-12-20T09:07:30;1.63;;;0.50;;
37477;SDS011;23334;54.316;10.182;2023-12-20T09:09:56;3.50;;;0.60;;
37477;SDS011;23334;54.316;10.182;2023-12-20T09:12:23;0.77;;;0.50;;
37477;SDS011;23334;54.316;10.182;2023-12-20T09:14:50;6.10;;;0.80;;
37477;SDS011;23334;54.316;10.182;2023-12-20T09:17:17;3.80;;;0.63;;
37477;SDS011;23334;54.316;10.182;2023-12-20T09:19:43;9.83;;;0.60;;
37477;SDS011;23334;54.316;10.182;2023-12-20T09:22:09;0.80;;;0.40;;
37477;SDS011;23334;54.316;10.182;2023-12-20T09:24:35;1.63;;;0.40;;
37477;SDS011;23334;54.316;10.182;2023-12-20T09:27:00;0.93;;;0.50;;
37477;SDS011;23334;54.316;10.182;2023-12-20T09:29:26;2.70;;;0.70;;
37477;SDS011;23334;54.316;10.182;2023-12-20T09:31:53;2.40;;;0.50;;
37477;SDS011;23334;54.316;10.182;2023-12-20T09:34:19;3.77;;;1.00;;
37477;SDS011;23334;54.316;10.182;2023-12-20T09:36:44;2.97;;;0.40;;
37477;SDS011;23334;54.316;10.182;2023-12-20T09:39:16;6.63;;;0.60;;
37477;SDS011;23334;54.316;10.182;2023-12-20T09:41:48;1.33;;;0.60;;
37477;SDS011;23334;54.316;10.182;2023-12-20T09:44:21;1.87;;;0.60;;
37477;SDS011;23334;54.316;10.182;2023-12-20T09:46:49;0.60;;;0.40;;
37477;SDS011;23334;54.316;10.182;2023-12-20T09:49:16;7.10;;;1.07;;
37477;SDS011;23334;54.316;10.182;2023-12-20T09:51:43;2.70;;;0.53;;
37477;SDS011;23334;54.316;10.182;2023-12-20T09:54:19;11.03;;;0.93;;
37477;SDS011;23334;54.316;10.182;2023-12-20T09:56:45;6.60;;;1.50;;
37477;SDS011;23334;54.316;10.182;2023-12-20T09:59:11;2.17;;;0.77;;
37477;SDS011;23334;54.316;10.182;2023-12-20T10:01:37;7.10;;;0.80;;
37477;SDS011;23334;54.316;10.182;2023-12-20T10:04:05;6.50;;;0.77;;
37477;SDS011;23334;54.316;10.182;2023-12-20T10:06:43;7.40;;;1.07;;
37477;SDS011;23334;54.316;10.182;2023-12-20T10:09:09;3.17;;;0.87;;
37477;SDS011;23334;54.316;10.182;2023-12-20T10:11:36;6.27;;;0.67;;
37477;SDS011;23334;54.316;10.182;2023-12-20T10:14:04;2.40;;;0.70;;
37477;SDS011;23334;54.316;10.182;2023-12-20T10:16:31;5.53;;;0.80;;
37477;SDS011;23334;54.316;10.182;2023-12-20T10:18:58;8.50;;;0.77;;
37477;SDS011;23334;54.316;10.182;2023-12-20T10:21:25;7.03;;;1.03;;
37477;SDS011;23334;54.316;10.182;2023-12-20T10:23:51;5.00;;;0.80;;
37477;SDS011;23334;54.316;10.182;2023-12-20T10:26:25;7.30;;;1.23;;
37477;SDS011;23334;54.316;10.182;2023-12-20T10:28:55;10.43;;;1.07;;
37477;SDS011;23334;54.316;10.182;2023-12-20T10:31:28;1.33;;;0.60;;
37477;SDS011;23334;54.316;10.182;2023-12-20T10:34:00;4.37;;;1.07;;
37477;SDS011;23334;54.316;10.182;2023-12-20T10:36:31;3.90;;;0.90;;
37477;SDS011;23334;54.316;10.182;2023-12-20T10:38:58;4.93;;;0.93;;
37477;SDS011;23334;54.316;10.182;2023-12-20T10:41:28;9.83;;;1.17;;
37477;SDS011;23334;54.316;10.182;2023-12-20T10:43:59;7.10;;;1.23;;
37477;SDS011;23334;54.316;10.182;2023-12-20T10:46:29;3.70;;;0.83;;
37477;SDS011;23334;54.316;10.182;2023-12-20T10:48:57;5.27;;;0.83;;
37477;SDS011;23334;54.316;10.182;2023-12-20T10:51:23;5.90;;;0.90;;
37477;SDS011;23334;54.316;10.182;2023-12-20T10:53:52;1.87;;;0.60;;
37477;SDS011;23334;54.316;10.182;2023-12-20T10:56:18;1.10;;;0.60;;
37477;SDS011;23334;54.316;10.182;2023-12-20T10:58:48;8.57;;;1.50;;
37477;SDS011;23334;54.316;10.182;2023-12-20T11:01:14;2.93;;;0.70;;
37477;SDS011;23334;54.316;10.182;2023-12-20T11:03:43;4.13;;;1.20;;
37477;SDS011;23334;54.316;10.182;2023-12-20T11:06:47;6.43;;;1.20;;
37477;SDS011;23334;54.316;10.182;2023-12-20T11:09:22;5.07;;;1.00;;
37477;SDS011;23334;54.316;10.182;2023-12-20T11:12:00;6.40;;;0.90;;
37477;SDS011;23334;54.316;10.182;2023-12-20T11:14:41;5.67;;;1.50;;
37477;SDS011;23334;54.316;10.182;2023-12-20T11:17:09;2.40;;;1.10;;
37477;SDS011;23334;54.316;10.182;2023-12-20T11:19:37;4.23;;;0.80;;
37477;SDS011;23334;54.316;10.182;2023-12-20T11:22:08;4.40;;;1.13;;
37477;SDS011;23334;54.316;10.182;2023-12-20T11:24:34;3.17;;;0.97;;
37477;SDS011;23334;54.316;10.182;2023-12-20T11:27:02;7.37;;;1.10;;
37477;SDS011;23334;54.316;10.182;2023-12-20T11:29:29;9.27;;;1.40;;
37477;SDS011;23334;54.316;10.182;2023-12-20T11:31:55;6.60;;;0.80;;
37477;SDS011;23334;54.316;10.182;2023-12-20T11:34:21;6.47;;;0.83;;
37477;SDS011;23334;54.316;10.182;2023-12-20T11:36:46;4.83;;;0.80;;
37477;SDS011;23334;54.316;10.182;2023-12-20T11:39:12;9.43;;;1.43;;
37477;SDS011;23334;54.316;10.182;2023-12-20T11:41:45;7.83;;;1.60;;
37477;SDS011;23334;54.316;10.182;2023-12-20T11:44:14;7.20;;;1.37;;
37477;SDS011;23334;54.316;10.182;2023-12-20T11:46:42;7.00;;;1.40;;
37477;SDS011;23334;54.316;10.182;2023-12-20T11:49:07;13.73;;;1.10;;
37477;SDS011;23334;54.316;10.182;2023-12-20T11:51:33;10.50;;;1.67;;
37477;SDS011;23334;54.316;10.182;2023-12-20T11:53:58;14.70;;;1.60;;
37477;SDS011;23334;54.316;10.182;2023-12-20T11:56:25;5.37;;;1.17;;
37477;SDS011;23334;54.316;10.182;2023-12-20T11:58:50;6.50;;;1.50;;
37477;SDS011;23334;54.316;10.182;2023-12-20T12:01:16;2.07;;;1.00;;
37477;SDS011;23334;54.316;10.182;2023-12-20T12:03:44;7.60;;;1.40;;
37477;SDS011;23334;54.316;10.182;2023-12-20T12:06:10;6.70;;;1.17;;
37477;SDS011;23334;54.316;10.182;2023-12-20T12:08:38;9.80;;;1.17;;
37477;SDS011;23334;54.316;10.182;2023-12-20T12:11:03;5.43;;;1.53;;
37477;SDS011;23334;54.316;10.182;2023-12-20T12:13:29;4.27;;;1.10;;
37477;SDS011;23334;54.316;10.182;2023-12-20T12:15:54;9.30;;;1.33;;
37477;SDS011;23334;54.316;10.182;2023-12-20T12:18:20;15.83;;;1.70;;
37477;SDS011;23334;54.316;10.182;2023-12-20T12:20:46;10.10;;;1.23;;
37477;SDS011;23334;54.316;10.182;2023-12-20T12:23:13;5.63;;;0.93;;
37477;SDS011;23334;54.316;10.182;2023-12-20T12:25:48;9.80;;;1.70;;
37477;SDS011;23334;54.316;10.182;2023-12-20T12:28:14;9.20;;;1.43;;
37477;SDS011;23334;54.316;10.182;2023-12-20T12:30:41;5.37;;;1.50;;
37477;SDS011;23334;54.316;10.182;2023-12-20T12:33:07;2.70;;;0.77;;
37477;SDS011;23334;54.316;10.182;2023-12-20T12:35:32;7.57;;;1.60;;
37477;SDS011;23334;54.316;10.182;2023-12-20T12:37:59;5.10;;;1.43;;
37477;SDS011;23334;54.316;10.182;2023-12-20T12:40:26;7.60;;;1.63;;
37477;SDS011;23334;54.316;10.182;2023-12-20T12:42:51;3.33;;;1.37;;
37477;SDS011;23334;54.316;10.182;2023-12-20T12:45:18;10.80;;;1.80;;
37477;SDS011;23334;54.316;10.182;2023-12-20T12:47:44;4.47;;;1.60;;
37477;SDS011;23334;54.316;10.182;2023-12-20T12:50:10;5.30;;;1.83;;
37477;SDS011;23334;54.316;10.182;2023-12-20T12:52:35;11.20;;;1.90;;
37477;SDS011;23334;54.316;10.182;2023-12-20T12:55:01;5.17;;;2.13;;
37477;SDS011;23334;54.316;10.182;2023-12-20T12:57:30;9.43;;;3.40;;
37477;SDS011;23334;54.316;10.182;2023-12-20T12:59:55;9.10;;;2.53;;
37477;SDS011;23334;54.316;10.182;2023-12-20T13:02:21;4.63;;;1.93;;
37477;SDS011;23334;54.316;10.182;2023-12-20T13:04:47;10.23;;;1.77;;
37477;SDS011;23334;54.316;10.182;2023-12-20T13:07:12;11.33;;;2.03;;
37477;SDS011;23334;54.316;10.182;2023-12-20T13:09:38;10.70;;;1.93;;
37477;SDS011;23334;54.316;10.182;2023-12-20T13:12:05;5.93;;;2.30;;
37477;SDS011;23334;54.316;10.182;2023-12-20T13:14:32;6.63;;;1.83;;
37477;SDS011;23334;54.316;10.182;2023-12-20T13:16:59;7.20;;;2.10;;
37477;SDS011;23334;54.316;10.182;2023-12-20T13:19:25;14.03;;;2.20;;
37477;SDS011;23334;54.316;10.182;2023-12-20T13:21:50;14.40;;;2.27;;
37477;SDS011;23334;54.316;10.182;2023-12-20T13:24:16;11.10;;;1.90;;
37477;SDS011;23334;54.316;10.182;2023-12-20T13:26:41;12.00;;;2.40;;
37477;SDS011;23334;54.316;10.182;2023-12-20T13:29:06;8.63;;;2.50;;
37477;SDS011;23334;54.316;10.182;2023-12-20T13:31:32;10.73;;;2.73;;
37477;SDS011;23334;54.316;10.182;2023-12-20T13:33:58;8.07;;;2.37;;
37477;SDS011;23334;54.316;10.182;2023-12-20T13:36:25;12.47;;;2.60;;
37477;SDS011;23334;54.316;10.182;2023-12-20T13:38:51;20.67;;;3.27;;
37477;SDS011;23334;54.316;10.182;2023-12-20T13:41:16;10.90;;;3.03;;
37477;SDS011;23334;54.316;10.182;2023-12-20T13:43:42;9.47;;;2.87;;
37477;SDS011;23334;54.316;10.182;2023-12-20T13:46:07;12.17;;;2.17;;
37477;SDS011;23334;54.316;10.182;2023-12-20T13:48:33;11.97;;;2.17;;
37477;SDS011;23334;54.316;10.182;2023-12-20T13:50:58;10.63;;;4.00;;
37477;SDS011;23334;54.316;10.182;2023-12-20T13:53:27;19.37;;;3.47;;
37477;SDS011;23334;54.316;10.182;2023-12-20T13:55:55;14.53;;;3.17;;
37477;SDS011;23334;54.316;10.182;2023-12-20T13:58:22;10.90;;;2.87;;
37477;SDS011;23334;54.316;10.182;2023-12-20T14:00:49;7.60;;;2.80;;
37477;SDS011;23334;54.316;10.182;2023-12-20T14:03:14;7.13;;;2.40;;
37477;SDS011;23334;54.316;10.182;2023-12-20T14:05:40;14.47;;;2.90;;
37477;SDS011;23334;54.316;10.182;2023-12-20T14:08:06;7.60;;;2.23;;
37477;SDS011;23334;54.316;10.182;2023-12-20T14:10:32;7.97;;;2.50;;
37477;SDS011;23334;54.316;10.182;2023-12-20T14:13:00;8.43;;;2.50;;
37477;SDS011;23334;54.316;10.182;2023-12-20T14:15:25;10.37;;;3.50;;
37477;SDS011;23334;54.316;10.182;2023-12-20T14:17:51;4.47;;;2.67;;
37477;SDS011;23334;54.316;10.182;2023-12-20T14:20:17;10.40;;;3.40;;
37477;SDS011;23334;54.316;10.182;2023-12-20T14:22:44;9.17;;;3.00;;
37477;SDS011;23334;54.316;10.182;2023-12-20T14:25:13;8.00;;;2.93;;
37477;SDS011;23334;54.316;10.182;2023-12-20T14:27:39;11.90;;;3.40;;